Toronto, Canada
Current Conditions -  °F | °C
As of 9:00 AM on Friday 19 Dec 2014 (Local Time) from CYYZ Reporting Station
Broken Clouds Broken Clouds  
Wind Chill: -10°   Ceiling: 6900
Heat Index: -4°   Visibility: 15mi
Dew Point: -7°   Wind: 10mph
Humidity: 80%   Direction: 330°NNW
Pressure: 30.19"   Gusts: 17mph
Location:  43.65°N, 79.39°W
Report Text: CYYZ 191400Z 33009G15KT 15SM FEW015 BKN069 M04/M07 A3019 RMK CF2AC4 SLP233
Loading
Personal Weather Stations






























Interactive Weather Map New forecast layout! Learn more

10-Day Weather Forecast

Advertisements
Track Severe Weather on mobile